sensor_id;sensor_type;location;lat;lon;timestamp;temperature;humidity
1107;DHT22;540;49.448;8.612;2023-04-01T00:00:31;11.10;99.90
1107;DHT22;540;49.448;8.612;2023-04-01T00:02:59;11.00;99.90
1107;DHT22;540;49.448;8.612;2023-04-01T00:05:27;10.90;99.90
1107;DHT22;540;49.448;8.612;2023-04-01T00:07:55;11.00;99.90
1107;DHT22;540;49.448;8.612;2023-04-01T00:10:23;11.20;99.90
1107;DHT22;540;49.448;8.612;2023-04-01T00:12:50;11.30;99.90
1107;DHT22;540;49.448;8.612;2023-04-01T00:15:20;11.00;99.90
1107;DHT22;540;49.448;8.612;2023-04-01T00:17:48;11.20;99.90
1107;DHT22;540;49.448;8.612;2023-04-01T00:20:16;11.00;99.90
1107;DHT22;540;49.448;8.612;2023-04-01T00:22:44;11.10;99.90
1107;DHT22;540;49.448;8.612;2023-04-01T00:25:12;11.10;99.90
1107;DHT22;540;49.448;8.612;2023-04-01T00:27:40;11.10;99.90
1107;DHT22;540;49.448;8.612;2023-04-01T00:30:09;11.10;99.90
1107;DHT22;540;49.448;8.612;2023-04-01T00:32:38;11.00;99.90
1107;DHT22;540;49.448;8.612;2023-04-01T00:35:06;11.10;99.90
1107;DHT22;540;49.448;8.612;2023-04-01T00:37:35;11.30;99.90
1107;DHT22;540;49.448;8.612;2023-04-01T00:40:04;10.80;99.90
1107;DHT22;540;49.448;8.612;2023-04-01T00:42:33;11.20;99.90
1107;DHT22;540;49.448;8.612;2023-04-01T00:45:29;11.20;99.90
1107;DHT22;540;49.448;8.612;2023-04-01T00:48:03;11.00;99.90
1107;DHT22;540;49.448;8.612;2023-04-01T00:50:33;11.10;99.90
1107;DHT22;540;49.448;8.612;2023-04-01T00:53:03;11.00;99.90
1107;DHT22;540;49.448;8.612;2023-04-01T00:55:32;10.90;99.90
1107;DHT22;540;49.448;8.612;2023-04-01T00:58:04;11.00;99.90
1107;DHT22;540;49.448;8.612;2023-04-01T01:00:34;10.80;99.90
1107;DHT22;540;49.448;8.612;2023-04-01T01:03:03;11.00;99.90
1107;DHT22;540;49.448;8.612;2023-04-01T01:05:38;11.10;99.90
1107;DHT22;540;49.448;8.612;2023-04-01T01:08:19;10.80;99.90
1107;DHT22;540;49.448;8.612;2023-04-01T01:10:51;11.00;99.90
1107;DHT22;540;49.448;8.612;2023-04-01T01:13:25;11.00;99.90
1107;DHT22;540;49.448;8.612;2023-04-01T01:15:58;11.10;99.90
1107;DHT22;540;49.448;8.612;2023-04-01T01:18:33;11.20;99.90
1107;DHT22;540;49.448;8.612;2023-04-01T01:21:26;11.10;99.90
1107;DHT22;540;49.448;8.612;2023-04-01T01:27:16;11.20;99.90
1107;DHT22;540;49.448;8.612;2023-04-01T01:32:59;11.00;99.90
1107;DHT22;540;49.448;8.612;2023-04-01T01:35:33;11.00;99.70
1107;DHT22;540;49.448;8.612;2023-04-01T01:38:05;10.50;99.40
1107;DHT22;540;49.448;8.612;2023-04-01T01:40:34;11.20;99.60
1107;DHT22;540;49.448;8.612;2023-04-01T01:43:05;10.90;99.10
1107;DHT22;540;49.448;8.612;2023-04-01T01:45:36;10.90;98.90
1107;DHT22;540;49.448;8.612;2023-04-01T01:48:07;11.00;99.20
1107;DHT22;540;49.448;8.612;2023-04-01T01:50:37;11.10;99.10
1107;DHT22;540;49.448;8.612;2023-04-01T01:53:08;11.00;98.60
1107;DHT22;540;49.448;8.612;2023-04-01T01:55:37;11.00;98.50
1107;DHT22;540;49.448;8.612;2023-04-01T01:58:10;11.20;98.50
1107;DHT22;540;49.448;8.612;2023-04-01T02:00:39;10.90;98.50
1107;DHT22;540;49.448;8.612;2023-04-01T02:03:08;11.00;98.60
1107;DHT22;540;49.448;8.612;2023-04-01T02:05:37;11.20;98.60
1107;DHT22;540;49.448;8.612;2023-04-01T02:08:10;11.10;98.80
1107;DHT22;540;49.448;8.612;2023-04-01T02:10:43;11.20;98.60
1107;DHT22;540;49.448;8.612;2023-04-01T02:13:17;11.20;98.50
1107;DHT22;540;49.448;8.612;2023-04-01T02:15:49;11.30;98.60
1107;DHT22;540;49.448;8.612;2023-04-01T02:18:18;11.20;98.60
1107;DHT22;540;49.448;8.612;2023-04-01T02:20:49;11.00;98.50
1107;DHT22;540;49.448;8.612;2023-04-01T02:23:17;11.20;98.30
1107;DHT22;540;49.448;8.612;2023-04-01T02:25:46;11.40;98.80
1107;DHT22;540;49.448;8.612;2023-04-01T02:28:14;11.00;98.30
1107;DHT22;540;49.448;8.612;2023-04-01T02:30:47;11.30;98.30
1107;DHT22;540;49.448;8.612;2023-04-01T02:33:17;11.00;98.30
1107;DHT22;540;49.448;8.612;2023-04-01T02:35:48;11.30;98.80
1107;DHT22;540;49.448;8.612;2023-04-01T02:38:23;11.30;98.40
1107;DHT22;540;49.448;8.612;2023-04-01T02:40:56;10.90;98.10
1107;DHT22;540;49.448;8.612;2023-04-01T02:43:25;11.40;98.10
1107;DHT22;540;49.448;8.612;2023-04-01T02:45:53;10.90;97.80
1107;DHT22;540;49.448;8.612;2023-04-01T02:48:20;11.30;98.20
1107;DHT22;540;49.448;8.612;2023-04-01T02:50:50;10.90;98.20
1107;DHT22;540;49.448;8.612;2023-04-01T02:53:17;11.30;98.70
1107;DHT22;540;49.448;8.612;2023-04-01T02:55:45;10.80;98.80
1107;DHT22;540;49.448;8.612;2023-04-01T02:58:13;10.90;99.10
1107;DHT22;540;49.448;8.612;2023-04-01T03:00:41;11.20;99.20
1107;DHT22;540;49.448;8.612;2023-04-01T03:03:09;10.90;99.10
1107;DHT22;540;49.448;8.612;2023-04-01T03:05:37;10.90;99.40
1107;DHT22;540;49.448;8.612;2023-04-01T03:08:06;11.00;99.10
1107;DHT22;540;49.448;8.612;2023-04-01T03:10:34;11.20;99.30
1107;DHT22;540;49.448;8.612;2023-04-01T03:13:01;11.20;99.00
1107;DHT22;540;49.448;8.612;2023-04-01T03:15:29;11.20;99.00
1107;DHT22;540;49.448;8.612;2023-04-01T03:17:57;11.30;99.00
1107;DHT22;540;49.448;8.612;2023-04-01T03:20:25;11.00;98.90
1107;DHT22;540;49.448;8.612;2023-04-01T03:22:53;11.10;99.30
1107;DHT22;540;49.448;8.612;2023-04-01T03:25:23;11.00;99.10
1107;DHT22;540;49.448;8.612;2023-04-01T03:27:51;10.90;99.30
1107;DHT22;540;49.448;8.612;2023-04-01T03:30:18;11.20;99.40
1107;DHT22;540;49.448;8.612;2023-04-01T03:32:46;10.90;99.60
1107;DHT22;540;49.448;8.612;2023-04-01T03:35:14;11.00;99.90
1107;DHT22;540;49.448;8.612;2023-04-01T03:37:42;11.20;99.90
1107;DHT22;540;49.448;8.612;2023-04-01T03:40:11;10.90;99.90
1107;DHT22;540;49.448;8.612;2023-04-01T03:42:40;11.10;99.90
1107;DHT22;540;49.448;8.612;2023-04-01T03:45:08;11.00;99.90
1107;DHT22;540;49.448;8.612;2023-04-01T03:47:38;10.90;99.40
1107;DHT22;540;49.448;8.612;2023-04-01T03:50:07;11.20;99.50
1107;DHT22;540;49.448;8.612;2023-04-01T03:52:35;10.90;98.60
1107;DHT22;540;49.448;8.612;2023-04-01T03:55:03;10.90;98.30
1107;DHT22;540;49.448;8.612;2023-04-01T03:57:31;11.00;98.00
1107;DHT22;540;49.448;8.612;2023-04-01T04:00:01;11.00;98.20
1107;DHT22;540;49.448;8.612;2023-04-01T04:02:29;10.90;97.60
1107;DHT22;540;49.448;8.612;2023-04-01T04:04:56;11.10;98.10
1107;DHT22;540;49.448;8.612;2023-04-01T04:07:24;11.20;97.70
1107;DHT22;540;49.448;8.612;2023-04-01T04:09:52;11.10;97.80
1107;DHT22;540;49.448;8.612;2023-04-01T04:12:20;10.90;97.70
1107;DHT22;540;49.448;8.612;2023-04-01T04:14:47;10.90;97.70
1107;DHT22;540;49.448;8.612;2023-04-01T04:17:16;10.90;97.70
1107;DHT22;540;49.448;8.612;2023-04-01T04:19:44;11.30;98.00
1107;DHT22;540;49.448;8.612;2023-04-01T04:22:12;11.00;97.90
1107;DHT22;540;49.448;8.612;2023-04-01T04:24:40;11.20;98.30
1107;DHT22;540;49.448;8.612;2023-04-01T04:27:08;11.10;98.30
1107;DHT22;540;49.448;8.612;2023-04-01T04:29:35;11.20;98.20
1107;DHT22;540;49.448;8.612;2023-04-01T04:32:03;11.20;98.20
1107;DHT22;540;49.448;8.612;2023-04-01T04:34:33;11.40;98.30
1107;DHT22;540;49.448;8.612;2023-04-01T04:37:00;11.20;98.70
1107;DHT22;540;49.448;8.612;2023-04-01T04:39:29;10.90;98.50
1107;DHT22;540;49.448;8.612;2023-04-01T04:41:56;11.20;98.90
1107;DHT22;540;49.448;8.612;2023-04-01T04:44:24;11.00;98.90
1107;DHT22;540;49.448;8.612;2023-04-01T04:46:52;11.00;99.30
1107;DHT22;540;49.448;8.612;2023-04-01T04:49:23;11.00;99.90
1107;DHT22;540;49.448;8.612;2023-04-01T04:51:53;10.80;99.90
1107;DHT22;540;49.448;8.612;2023-04-01T04:54:21;10.80;99.90
1107;DHT22;540;49.448;8.612;2023-04-01T04:56:51;10.90;99.90
1107;DHT22;540;49.448;8.612;2023-04-01T04:59:19;10.70;99.90
1107;DHT22;540;49.448;8.612;2023-04-01T05:01:47;10.70;99.90
1107;DHT22;540;49.448;8.612;2023-04-01T05:04:15;10.80;99.90
1107;DHT22;540;49.448;8.612;2023-04-01T05:06:43;10.50;99.90
1107;DHT22;540;49.448;8.612;2023-04-01T05:09:13;10.80;99.90
1107;DHT22;540;49.448;8.612;2023-04-01T05:11:40;10.70;99.90
1107;DHT22;540;49.448;8.612;2023-04-01T05:14:12;10.50;99.90
1107;DHT22;540;49.448;8.612;2023-04-01T05:16:40;10.70;99.90
1107;DHT22;540;49.448;8.612;2023-04-01T05:19:08;10.50;99.90
1107;DHT22;540;49.448;8.612;2023-04-01T05:21:36;10.40;99.90
1107;DHT22;540;49.448;8.612;2023-04-01T05:24:07;10.70;99.90
1107;DHT22;540;49.448;8.612;2023-04-01T05:26:37;10.40;99.90
1107;DHT22;540;49.448;8.612;2023-04-01T05:29:05;10.30;99.90
1107;DHT22;540;49.448;8.612;2023-04-01T05:31:33;10.30;99.90
1107;DHT22;540;49.448;8.612;2023-04-01T05:34:01;10.40;99.90
1107;DHT22;540;49.448;8.612;2023-04-01T05:36:28;10.50;99.90
1107;DHT22;540;49.448;8.612;2023-04-01T05:38:56;10.40;99.90
1107;DHT22;540;49.448;8.612;2023-04-01T05:41:24;10.60;99.90
1107;DHT22;540;49.448;8.612;2023-04-01T05:43:53;10.30;99.90
1107;DHT22;540;49.448;8.612;2023-04-01T05:46:21;10.30;99.90
1107;DHT22;540;49.448;8.612;2023-04-01T05:48:49;10.70;99.90
1107;DHT22;540;49.448;8.612;2023-04-01T05:51:17;10.60;99.90
1107;DHT22;540;49.448;8.612;2023-04-01T05:53:46;10.40;99.90
1107;DHT22;540;49.448;8.612;2023-04-01T05:56:14;10.70;99.90
1107;DHT22;540;49.448;8.612;2023-04-01T05:58:42;10.80;99.90
1107;DHT22;540;49.448;8.612;2023-04-01T06:01:11;10.60;99.90
1107;DHT22;540;49.448;8.612;2023-04-01T06:03:42;10.70;99.90
1107;DHT22;540;49.448;8.612;2023-04-01T06:06:13;10.90;99.90
1107;DHT22;540;49.448;8.612;2023-04-01T06:08:42;10.70;99.90
1107;DHT22;540;49.448;8.612;2023-04-01T06:11:23;10.80;99.90
1107;DHT22;540;49.448;8.612;2023-04-01T06:14:17;11.20;99.90
1107;DHT22;540;49.448;8.612;2023-04-01T06:17:02;10.70;99.90
1107;DHT22;540;49.448;8.612;2023-04-01T06:19:39;10.90;99.90
1107;DHT22;540;49.448;8.612;2023-04-01T06:22:45;10.90;99.90
1107;DHT22;540;49.448;8.612;2023-04-01T06:25:33;11.10;99.90
1107;DHT22;540;49.448;8.612;2023-04-01T06:28:35;11.00;99.90
1107;DHT22;540;49.448;8.612;2023-04-01T06:31:10;11.00;99.90
1107;DHT22;540;49.448;8.612;2023-04-01T06:33:56;10.90;99.90
1107;DHT22;540;49.448;8.612;2023-04-01T06:36:43;10.90;99.90
1107;DHT22;540;49.448;8.612;2023-04-01T06:39:27;10.90;99.90
1107;DHT22;540;49.448;8.612;2023-04-01T06:44:53;10.90;99.90
1107;DHT22;540;49.448;8.612;2023-04-01T06:47:33;10.90;99.90
1107;DHT22;540;49.448;8.612;2023-04-01T06:50:09;10.90;99.90
1107;DHT22;540;49.448;8.612;2023-04-01T06:52:45;10.80;99.90
1107;DHT22;540;49.448;8.612;2023-04-01T06:55:26;11.20;99.90
1107;DHT22;540;49.448;8.612;2023-04-01T06:57:56;11.20;99.90
1107;DHT22;540;49.448;8.612;2023-04-01T07:00:28;10.90;99.90
1107;DHT22;540;49.448;8.612;2023-04-01T07:03:05;11.10;99.90
1107;DHT22;540;49.448;8.612;2023-04-01T07:05:34;10.50;99.90
1107;DHT22;540;49.448;8.612;2023-04-01T07:08:05;11.00;99.90
1107;DHT22;540;49.448;8.612;2023-04-01T07:10:42;10.80;99.90
1107;DHT22;540;49.448;8.612;2023-04-01T07:13:15;11.00;99.90
1107;DHT22;540;49.448;8.612;2023-04-01T07:15:51;11.00;99.90
1107;DHT22;540;49.448;8.612;2023-04-01T07:18:30;11.20;99.90
1107;DHT22;540;49.448;8.612;2023-04-01T07:21:01;11.10;99.90
1107;DHT22;540;49.448;8.612;2023-04-01T07:23:33;10.80;99.90
1107;DHT22;540;49.448;8.612;2023-04-01T07:26:18;11.20;99.90
1107;DHT22;540;49.448;8.612;2023-04-01T07:28:48;11.10;99.90
1107;DHT22;540;49.448;8.612;2023-04-01T07:31:33;10.70;99.90
1107;DHT22;540;49.448;8.612;2023-04-01T07:34:08;11.00;99.90
1107;DHT22;540;49.448;8.612;2023-04-01T07:36:42;10.80;99.90
1107;DHT22;540;49.448;8.612;2023-04-01T07:39:21;11.00;99.90
1107;DHT22;540;49.448;8.612;2023-04-01T07:41:52;11.00;99.90
1107;DHT22;540;49.448;8.612;2023-04-01T07:44:26;10.80;99.90
1107;DHT22;540;49.448;8.612;2023-04-01T07:47:16;11.00;99.90
1107;DHT22;540;49.448;8.612;2023-04-01T07:49:53;10.60;99.90
1107;DHT22;540;49.448;8.612;2023-04-01T07:52:27;10.70;99.90
1107;DHT22;540;49.448;8.612;2023-04-01T07:55:01;10.60;99.90
1107;DHT22;540;49.448;8.612;2023-04-01T07:57:38;10.90;99.90
1107;DHT22;540;49.448;8.612;2023-04-01T08:00:14;10.60;99.90
1107;DHT22;540;49.448;8.612;2023-04-01T08:03:09;10.90;99.90
1107;DHT22;540;49.448;8.612;2023-04-01T08:05:46;10.60;99.90
1107;DHT22;540;49.448;8.612;2023-04-01T08:08:23;10.60;99.90
1107;DHT22;540;49.448;8.612;2023-04-01T08:11:03;10.50;99.90
1107;DHT22;540;49.448;8.612;2023-04-01T08:13:39;10.60;99.90
1107;DHT22;540;49.448;8.612;2023-04-01T08:16:15;10.80;99.90
1107;DHT22;540;49.448;8.612;2023-04-01T08:18:54;10.60;99.90
1107;DHT22;540;49.448;8.612;2023-04-01T08:21:30;10.90;99.90
1107;DHT22;540;49.448;8.612;2023-04-01T08:24:22;10.80;99.90
1107;DHT22;540;49.448;8.612;2023-04-01T08:27:05;10.90;99.90
1107;DHT22;540;49.448;8.612;2023-04-01T08:29:38;10.90;99.90
1107;DHT22;540;49.448;8.612;2023-04-01T08:32:12;10.60;99.90
1107;DHT22;540;49.448;8.612;2023-04-01T08:34:47;11.00;99.90
1107;DHT22;540;49.448;8.612;2023-04-01T08:37:23;11.00;99.90
1107;DHT22;540;49.448;8.612;2023-04-01T08:40:00;11.00;99.90
1107;DHT22;540;49.448;8.612;2023-04-01T08:42:51;10.90;99.90
1107;DHT22;540;49.448;8.612;2023-04-01T08:48:48;10.90;99.90
1107;DHT22;540;49.448;8.612;2023-04-01T08:54:46;11.00;99.90
1107;DHT22;540;49.448;8.612;2023-04-01T08:57:29;10.70;99.90
1107;DHT22;540;49.448;8.612;2023-04-01T09:00:08;10.90;99.90
1107;DHT22;540;49.448;8.612;2023-04-01T09:08:45;10.60;99.90
1107;DHT22;540;49.448;8.612;2023-04-01T09:11:30;11.00;99.90
1107;DHT22;540;49.448;8.612;2023-04-01T09:14:17;11.00;99.90
1107;DHT22;540;49.448;8.612;2023-04-01T09:17:09;11.10;99.90
1107;DHT22;540;49.448;8.612;2023-04-01T09:19:54;11.10;99.90
1107;DHT22;540;49.448;8.612;2023-04-01T09:22:37;10.40;99.90
1107;DHT22;540;49.448;8.612;2023-04-01T09:25:21;11.30;99.90
1107;DHT22;540;49.448;8.612;2023-04-01T09:27:57;11.00;99.90
1107;DHT22;540;49.448;8.612;2023-04-01T09:30:37;11.10;99.90
1107;DHT22;540;49.448;8.612;2023-04-01T09:33:32;11.00;99.90
1107;DHT22;540;49.448;8.612;2023-04-01T09:36:17;11.00;99.90
1107;DHT22;540;49.448;8.612;2023-04-01T09:38:56;11.30;99.90
1107;DHT22;540;49.448;8.612;2023-04-01T09:41:30;11.10;99.90
1107;DHT22;540;49.448;8.612;2023-04-01T09:44:03;11.00;99.90
1107;DHT22;540;49.448;8.612;2023-04-01T09:46:47;11.20;99.90
1107;DHT22;540;49.448;8.612;2023-04-01T09:49:43;11.00;99.90
1107;DHT22;540;49.448;8.612;2023-04-01T09:52:24;10.70;99.90
1107;DHT22;540;49.448;8.612;2023-04-01T09:55:45;10.90;99.90
1107;DHT22;540;49.448;8.612;2023-04-01T09:58:38;11.10;99.90
1107;DHT22;540;49.448;8.612;2023-04-01T10:01:26;11.20;99.90
1107;DHT22;540;49.448;8.612;2023-04-01T10:04:20;11.00;99.90
1107;DHT22;540;49.448;8.612;2023-04-01T10:07:28;11.00;99.90
1107;DHT22;540;49.448;8.612;2023-04-01T10:10:28;11.20;99.90
1107;DHT22;540;49.448;8.612;2023-04-01T10:13:22;11.20;99.90
1107;DHT22;540;49.448;8.612;2023-04-01T10:16:08;11.00;99.90
1107;DHT22;540;49.448;8.612;2023-04-01T10:19:03;11.20;99.90
1107;DHT22;540;49.448;8.612;2023-04-01T10:22:08;11.10;99.90
1107;DHT22;540;49.448;8.612;2023-04-01T10:25:00;11.60;99.90
1107;DHT22;540;49.448;8.612;2023-04-01T10:27:49;11.20;99.90
1107;DHT22;540;49.448;8.612;2023-04-01T10:30:54;11.60;99.90
1107;DHT22;540;49.448;8.612;2023-04-01T10:36:52;11.60;99.90
1107;DHT22;540;49.448;8.612;2023-04-01T10:39:50;11.70;99.90
1107;DHT22;540;49.448;8.612;2023-04-01T10:46:07;11.30;99.90
1107;DHT22;540;49.448;8.612;2023-04-01T10:52:21;10.80;99.90
1107;DHT22;540;49.448;8.612;2023-04-01T10:55:04;11.70;99.90
1107;DHT22;540;49.448;8.612;2023-04-01T10:58:02;11.50;99.90
1107;DHT22;540;49.448;8.612;2023-04-01T11:00:58;10.70;99.90
1107;DHT22;540;49.448;8.612;2023-04-01T11:03:53;11.50;99.90
1107;DHT22;540;49.448;8.612;2023-04-01T11:13:08;11.40;99.90
1107;DHT22;540;49.448;8.612;2023-04-01T11:19:10;11.50;99.90
1107;DHT22;540;49.448;8.612;2023-04-01T11:22:07;11.70;99.90
1107;DHT22;540;49.448;8.612;2023-04-01T11:28:33;11.40;99.90
1107;DHT22;540;49.448;8.612;2023-04-01T11:31:15;11.50;99.90
1107;DHT22;540;49.448;8.612;2023-04-01T11:33:47;11.60;99.90
1107;DHT22;540;49.448;8.612;2023-04-01T11:36:29;11.60;99.90
1107;DHT22;540;49.448;8.612;2023-04-01T11:39:11;11.80;99.90
1107;DHT22;540;49.448;8.612;2023-04-01T11:41:46;11.80;99.90
1107;DHT22;540;49.448;8.612;2023-04-01T11:44:20;11.60;99.90
1107;DHT22;540;49.448;8.612;2023-04-01T11:47:02;11.70;99.90
1107;DHT22;540;49.448;8.612;2023-04-01T11:49:45;11.80;99.90
1107;DHT22;540;49.448;8.612;2023-04-01T11:52:28;11.80;99.90
1107;DHT22;540;49.448;8.612;2023-04-01T11:55:08;11.70;99.90
1107;DHT22;540;49.448;8.612;2023-04-01T11:58:10;11.80;99.90
1107;DHT22;540;49.448;8.612;2023-04-01T12:01:08;11.90;99.90
1107;DHT22;540;49.448;8.612;2023-04-01T12:04:00;11.90;99.90
1107;DHT22;540;49.448;8.612;2023-04-01T12:06:37;11.90;99.90
1107;DHT22;540;49.448;8.612;2023-04-01T12:09:12;11.60;99.90
1107;DHT22;540;49.448;8.612;2023-04-01T12:11:50;11.80;99.90
1107;DHT22;540;49.448;8.612;2023-04-01T12:14:24;11.80;99.90
1107;DHT22;540;49.448;8.612;2023-04-01T12:17:03;11.60;99.90
1107;DHT22;540;49.448;8.612;2023-04-01T12:19:41;12.00;99.90
1107;DHT22;540;49.448;8.612;2023-04-01T12:22:23;11.90;99.90
1107;DHT22;540;49.448;8.612;2023-04-01T12:25:04;12.00;99.90
1107;DHT22;540;49.448;8.612;2023-04-01T12:27:39;12.00;99.90
1107;DHT22;540;49.448;8.612;2023-04-01T12:30:33;12.00;99.90
1107;DHT22;540;49.448;8.612;2023-04-01T12:33:18;11.90;99.90
1107;DHT22;540;49.448;8.612;2023-04-01T12:35:58;11.80;99.90
1107;DHT22;540;49.448;8.612;2023-04-01T12:38:35;12.00;99.90
1107;DHT22;540;49.448;8.612;2023-04-01T12:41:09;12.10;99.90
1107;DHT22;540;49.448;8.612;2023-04-01T12:46:49;12.00;99.90
1107;DHT22;540;49.448;8.612;2023-04-01T12:49:39;12.00;99.90
1107;DHT22;540;49.448;8.612;2023-04-01T12:52:13;11.90;99.90
1107;DHT22;540;49.448;8.612;2023-04-01T12:55:15;12.00;99.90
1107;DHT22;540;49.448;8.612;2023-04-01T13:01:02;11.90;99.90
1107;DHT22;540;49.448;8.612;2023-04-01T13:03:49;12.10;99.90
1107;DHT22;540;49.448;8.612;2023-04-01T13:06:36;12.30;99.90
1107;DHT22;540;49.448;8.612;2023-04-01T13:09:17;12.40;99.90
1107;DHT22;540;49.448;8.612;2023-04-01T13:11:59;12.40;99.90
1107;DHT22;540;49.448;8.612;2023-04-01T13:14:58;12.70;99.90
1107;DHT22;540;49.448;8.612;2023-04-01T13:17:36;12.60;99.90
1107;DHT22;540;49.448;8.612;2023-04-01T13:20:13;12.60;99.90
1107;DHT22;540;49.448;8.612;2023-04-01T13:22:55;12.30;99.90
1107;DHT22;540;49.448;8.612;2023-04-01T13:25:30;12.40;99.90
1107;DHT22;540;49.448;8.612;2023-04-01T13:28:09;12.20;99.90
1107;DHT22;540;49.448;8.612;2023-04-01T13:30:44;12.30;99.90
1107;DHT22;540;49.448;8.612;2023-04-01T13:33:24;12.50;99.90
1107;DHT22;540;49.448;8.612;2023-04-01T13:36:05;12.10;99.90
1107;DHT22;540;49.448;8.612;2023-04-01T13:38:52;12.10;99.90
1107;DHT22;540;49.448;8.612;2023-04-01T13:41:38;12.10;99.90
1107;DHT22;540;49.448;8.612;2023-04-01T13:44:14;12.10;99.90
1107;DHT22;540;49.448;8.612;2023-04-01T13:47:12;12.20;99.90
1107;DHT22;540;49.448;8.612;2023-04-01T13:49:57;12.10;99.90
1107;DHT22;540;49.448;8.612;2023-04-01T13:52:45;12.10;99.90
1107;DHT22;540;49.448;8.612;2023-04-01T13:55:24;12.50;99.90
1107;DHT22;540;49.448;8.612;2023-04-01T13:58:07;12.40;99.90
1107;DHT22;540;49.448;8.612;2023-04-01T14:00:53;12.50;99.90
1107;DHT22;540;49.448;8.612;2023-04-01T14:03:30;12.80;99.90
1107;DHT22;540;49.448;8.612;2023-04-01T14:06:09;12.60;99.90
1107;DHT22;540;49.448;8.612;2023-04-01T14:08:54;12.70;99.90
1107;DHT22;540;49.448;8.612;2023-04-01T14:11:33;12.80;99.90
1107;DHT22;540;49.448;8.612;2023-04-01T14:14:11;12.70;99.60
1107;DHT22;540;49.448;8.612;2023-04-01T14:16:57;12.70;99.50
1107;DHT22;540;49.448;8.612;2023-04-01T14:19:48;12.90;98.90
1107;DHT22;540;49.448;8.612;2023-04-01T14:22:24;12.70;99.30
1107;DHT22;540;49.448;8.612;2023-04-01T14:25:12;12.90;99.20
1107;DHT22;540;49.448;8.612;2023-04-01T14:27:54;12.80;98.90
1107;DHT22;540;49.448;8.612;2023-04-01T14:30:40;12.60;98.30
1107;DHT22;540;49.448;8.612;2023-04-01T14:33:26;12.80;98.80
1107;DHT22;540;49.448;8.612;2023-04-01T14:36:18;12.40;99.10
1107;DHT22;540;49.448;8.612;2023-04-01T14:38:55;12.80;99.90
1107;DHT22;540;49.448;8.612;2023-04-01T14:41:36;12.40;99.90
1107;DHT22;540;49.448;8.612;2023-04-01T14:44:40;12.40;99.90
1107;DHT22;540;49.448;8.612;2023-04-01T14:47:28;12.60;99.90
1107;DHT22;540;49.448;8.612;2023-04-01T14:50:06;12.40;99.90
1107;DHT22;540;49.448;8.612;2023-04-01T14:52:38;12.50;99.90
1107;DHT22;540;49.448;8.612;2023-04-01T14:58:09;12.30;99.90
1107;DHT22;540;49.448;8.612;2023-04-01T15:00:48;12.60;99.90
1107;DHT22;540;49.448;8.612;2023-04-01T15:03:22;12.30;99.90
1107;DHT22;540;49.448;8.612;2023-04-01T15:06:10;12.20;99.60
1107;DHT22;540;49.448;8.612;2023-04-01T15:08:47;12.70;99.90
1107;DHT22;540;49.448;8.612;2023-04-01T15:11:32;12.40;99.60
1107;DHT22;540;49.448;8.612;2023-04-01T15:17:14;12.10;99.90
1107;DHT22;540;49.448;8.612;2023-04-01T15:19:58;12.10;99.90
1107;DHT22;540;49.448;8.612;2023-04-01T15:22:43;12.40;99.90
1107;DHT22;540;49.448;8.612;2023-04-01T15:25:25;12.30;99.90
1107;DHT22;540;49.448;8.612;2023-04-01T15:28:07;12.30;99.90
1107;DHT22;540;49.448;8.612;2023-04-01T15:30:44;12.10;99.60
1107;DHT22;540;49.448;8.612;2023-04-01T15:36:16;12.60;99.90
1107;DHT22;540;49.448;8.612;2023-04-01T15:38:50;12.50;99.90
1107;DHT22;540;49.448;8.612;2023-04-01T15:41:23;12.20;99.90
1107;DHT22;540;49.448;8.612;2023-04-01T15:43:54;12.20;99.90
1107;DHT22;540;49.448;8.612;2023-04-01T15:46:36;12.30;99.90
1107;DHT22;540;49.448;8.612;2023-04-01T15:49:20;12.60;99.90
1107;DHT22;540;49.448;8.612;2023-04-01T15:52:02;12.60;99.90
1107;DHT22;540;49.448;8.612;2023-04-01T15:54:48;12.60;99.90
1107;DHT22;540;49.448;8.612;2023-04-01T15:57:35;12.50;99.80
1107;DHT22;540;49.448;8.612;2023-04-01T16:00:23;12.80;99.60
1107;DHT22;540;49.448;8.612;2023-04-01T16:03:09;12.50;99.90
1107;DHT22;540;49.448;8.612;2023-04-01T16:05:53;12.50;99.10
1107;DHT22;540;49.448;8.612;2023-04-01T16:08:50;12.50;99.20
1107;DHT22;540;49.448;8.612;2023-04-01T16:11:28;12.40;99.20
1107;DHT22;540;49.448;8.612;2023-04-01T16:14:07;12.40;99.00
1107;DHT22;540;49.448;8.612;2023-04-01T16:16:49;12.50;99.30
1107;DHT22;540;49.448;8.612;2023-04-01T16:19:32;12.30;99.90
1107;DHT22;540;49.448;8.612;2023-04-01T16:22:06;12.60;99.90
1107;DHT22;540;49.448;8.612;2023-04-01T16:24:40;12.50;99.90
1107;DHT22;540;49.448;8.612;2023-04-01T16:27:14;12.40;99.90
1107;DHT22;540;49.448;8.612;2023-04-01T16:29:47;12.40;99.90
1107;DHT22;540;49.448;8.612;2023-04-01T16:32:31;12.00;99.90
1107;DHT22;540;49.448;8.612;2023-04-01T16:35:12;12.10;99.60
1107;DHT22;540;49.448;8.612;2023-04-01T16:37:48;12.30;99.10
1107;DHT22;540;49.448;8.612;2023-04-01T16:40:25;12.40;98.30
1107;DHT22;540;49.448;8.612;2023-04-01T16:42:57;12.40;97.90
1107;DHT22;540;49.448;8.612;2023-04-01T16:45:35;12.50;96.60
1107;DHT22;540;49.448;8.612;2023-04-01T16:48:10;12.20;95.50
1107;DHT22;540;49.448;8.612;2023-04-01T16:50:53;12.30;94.40
1107;DHT22;540;49.448;8.612;2023-04-01T16:53:34;12.70;94.60
1107;DHT22;540;49.448;8.612;2023-04-01T16:56:10;12.40;93.80
1107;DHT22;540;49.448;8.612;2023-04-01T16:58:42;12.80;94.00
1107;DHT22;540;49.448;8.612;2023-04-01T17:01:14;12.70;93.60
1107;DHT22;540;49.448;8.612;2023-04-01T17:03:44;12.60;93.10
1107;DHT22;540;49.448;8.612;2023-04-01T17:06:28;12.10;93.50
1107;DHT22;540;49.448;8.612;2023-04-01T17:09:23;12.40;93.30
1107;DHT22;540;49.448;8.612;2023-04-01T17:11:57;12.30;93.00
1107;DHT22;540;49.448;8.612;2023-04-01T17:14:34;12.30;92.80
1107;DHT22;540;49.448;8.612;2023-04-01T17:17:20;12.30;92.60
1107;DHT22;540;49.448;8.612;2023-04-01T17:20:12;12.50;92.50
1107;DHT22;540;49.448;8.612;2023-04-01T17:22:49;12.50;92.80
1107;DHT22;540;49.448;8.612;2023-04-01T17:25:37;12.30;92.90
1107;DHT22;540;49.448;8.612;2023-04-01T17:28:18;12.10;92.20
1107;DHT22;540;49.448;8.612;2023-04-01T17:30:54;12.20;92.50
1107;DHT22;540;49.448;8.612;2023-04-01T17:33:42;12.30;92.90
1107;DHT22;540;49.448;8.612;2023-04-01T17:36:19;12.30;93.00
1107;DHT22;540;49.448;8.612;2023-04-01T17:39:02;12.30;94.10
1107;DHT22;540;49.448;8.612;2023-04-01T17:41:42;12.40;94.10
1107;DHT22;540;49.448;8.612;2023-04-01T17:44:21;12.10;94.00
1107;DHT22;540;49.448;8.612;2023-04-01T17:49:49;12.00;96.30
1107;DHT22;540;49.448;8.612;2023-04-01T17:52:26;12.00;97.10
1107;DHT22;540;49.448;8.612;2023-04-01T17:54:59;11.90;98.10
1107;DHT22;540;49.448;8.612;2023-04-01T17:57:43;11.90;99.90
1107;DHT22;540;49.448;8.612;2023-04-01T18:00:18;11.70;99.90
1107;DHT22;540;49.448;8.612;2023-04-01T18:02:51;11.90;99.90
1107;DHT22;540;49.448;8.612;2023-04-01T18:05:27;11.60;99.90
1107;DHT22;540;49.448;8.612;2023-04-01T18:08:06;11.70;99.90
1107;DHT22;540;49.448;8.612;2023-04-01T18:10:43;11.40;99.90
1107;DHT22;540;49.448;8.612;2023-04-01T18:13:45;11.70;99.90
1107;DHT22;540;49.448;8.612;2023-04-01T18:16:30;11.40;99.90
1107;DHT22;540;49.448;8.612;2023-04-01T18:19:06;11.40;99.90
1107;DHT22;540;49.448;8.612;2023-04-01T18:21:43;11.50;99.90
1107;DHT22;540;49.448;8.612;2023-04-01T18:24:18;11.10;99.90
1107;DHT22;540;49.448;8.612;2023-04-01T18:26:50;11.10;99.90